LKPR/PRG METAR and TAF weather

Enter ICAO airport designator
Station Type Date Time Source
LKPR METAR 2020/07/10 22:00 UTC NOAA

LKPR 102200Z 32011KT CAVOK 17/11 Q1017 NOSIG


Station Type Date Time Source
LKPR Decoded METAR 2020/07/10 22:00 UTC NOAA

Praha / Ruzyne, Czech Republic (LKPR) 50-06N 014-15E 365M
Jul 10, 2020 - 06:00 PM EDT / 2020.07.10 2200 UTC
Wind: from the NW (320 degrees) at 13 MPH (11 KT):0
Visibility: greater than 7 mile(s):0
Temperature: 62 F (17 C)
Dew Point: 51 F (11 C)
Relative Humidity: 67%
Pressure (altimeter): 30.03 in. Hg (1017 hPa)
ob: LKPR 102200Z 32011KT CAVOK 17/11 Q1017 NOSIG
cycle: 22

Station Type Date Time Source
LKPR TAF 2020/07/10 18:14 UTC NOAA

TAF LKPR 101700Z 1018/1200 35010KT CAVOK
TEMPO 1018/1100 4000 TSRA SCT040CB
BECMG 1100/1103 8000 -RA BKN020
TEMPO 1103/1112 3500 RA BR OVC009
BECMG 1112/1115 01003KT 9999 SCT030

Example: see airport list